Recursolandia, Brazil
Current Conditions -  °F | °C
As of 7:00 AM on Friday 31 Oct 2014 (Local Time) from SBPJ Reporting Station
Light Rain Light Rain  
Wind Chill: 77°   Ceiling: 7000
Heat Index: 78°   Visibility: 4mi
Dew Point: 72°   Wind: 6mph
Humidity: 83%   Direction: 180°S
Pressure: NA   Gusts: NA
Location:  8.73°S, 47.24°W
Report Text: SBPJ 311000Z 18005KT 7000 -RA FEW012 FEW030TCU BKN070 25/22 Q1013
Loading
Personal Weather Stations






























Interactive Weather Map
Tropical Storm Tracking
New forecast layout! Learn more

10-Day Weather Forecast

Advertisements
Track Severe Weather on mobile